Airport View

Enter AWOS ICAO identifier for current METAR.

ex. KFNL

25 Sep 2020 14:06

Frequency: 118.45

Phone: 724-452-5304

Other Area AWOS: KBTP - KBVI - KUCP - KPIT

TAF KBVI 251120Z 2512/2612 14004KT P6SM SCT250 FM260600 VRB02KT P6SM SCT250